sensor_id;sensor_type;location;lat;lon;timestamp;pressure;altitude;pressure_sealevel;temperature;humidity
68822;BME280;55834;50.870;4.606;2023-04-26T00:02:10;101276.06;;;4.17;48.78
68822;BME280;55834;50.870;4.606;2023-04-26T00:04:40;101270.06;;;4.29;48.47
68822;BME280;55834;50.870;4.606;2023-04-26T00:07:05;101277.03;;;4.31;48.00
68822;BME280;55834;50.870;4.606;2023-04-26T00:09:32;101275.34;;;4.35;47.51
68822;BME280;55834;50.870;4.606;2023-04-26T00:11:58;101275.31;;;4.29;47.71
68822;BME280;55834;50.870;4.606;2023-04-26T00:14:23;101278.69;;;4.19;47.45
68822;BME280;55834;50.870;4.606;2023-04-26T00:16:49;101278.66;;;4.10;47.91
68822;BME280;55834;50.870;4.606;2023-04-26T00:19:14;101288.16;;;3.98;47.70
68822;BME280;55834;50.870;4.606;2023-04-26T00:21:41;101289.94;;;4.04;48.77
68822;BME280;55834;50.870;4.606;2023-04-26T00:24:06;101280.38;;;4.11;48.90
68822;BME280;55834;50.870;4.606;2023-04-26T00:26:32;101275.19;;;4.17;48.25
68822;BME280;55834;50.870;4.606;2023-04-26T00:28:58;101285.69;;;4.21;48.00
68822;BME280;55834;50.870;4.606;2023-04-26T00:31:24;101275.22;;;4.20;47.88
68822;BME280;55834;50.870;4.606;2023-04-26T00:33:50;101269.16;;;4.21;48.04
68822;BME280;55834;50.870;4.606;2023-04-26T00:36:15;101275.22;;;4.20;48.30
68822;BME280;55834;50.870;4.606;2023-04-26T00:38:46;101272.53;;;4.11;47.03
68822;BME280;55834;50.870;4.606;2023-04-26T00:41:12;101283.81;;;4.00;46.79
68822;BME280;55834;50.870;4.606;2023-04-26T00:43:38;101294.22;;;3.94;47.39
68822;BME280;55834;50.870;4.606;2023-04-26T00:46:05;101290.72;;;3.92;46.88
68822;BME280;55834;50.870;4.606;2023-04-26T00:48:32;101289.84;;;3.92;48.02
68822;BME280;55834;50.870;4.606;2023-04-26T00:50:59;101283.75;;;3.96;48.50
68822;BME280;55834;50.870;4.606;2023-04-26T00:53:25;101281.97;;;3.87;48.04
68822;BME280;55834;50.870;4.606;2023-04-26T00:55:51;101276.41;;;3.50;47.71
68822;BME280;55834;50.870;4.606;2023-04-26T00:58:16;101279.75;;;3.35;49.77
68822;BME280;55834;50.870;4.606;2023-04-26T01:00:45;101277.22;;;3.45;48.99
68822;BME280;55834;50.870;4.606;2023-04-26T01:03:10;101285.84;;;3.36;49.59
68822;BME280;55834;50.870;4.606;2023-04-26T01:05:39;101279.50;;;3.14;48.08
68822;BME280;55834;50.870;4.606;2023-04-26T01:08:05;101276.16;;;3.24;50.16
68822;BME280;55834;50.870;4.606;2023-04-26T01:10:31;101278.94;;;3.41;49.74
68822;BME280;55834;50.870;4.606;2023-04-26T01:12:57;101278.16;;;3.48;48.96
68822;BME280;55834;50.870;4.606;2023-04-26T01:15:25;101280.75;;;3.50;48.77
68822;BME280;55834;50.870;4.606;2023-04-26T01:17:52;101279.03;;;3.49;48.04
68822;BME280;55834;50.870;4.606;2023-04-26T01:20:17;101273.69;;;3.38;47.23
68822;BME280;55834;50.870;4.606;2023-04-26T01:22:42;101283.28;;;3.40;48.62
68822;BME280;55834;50.870;4.606;2023-04-26T01:25:10;101289.34;;;3.36;48.32
68822;BME280;55834;50.870;4.606;2023-04-26T01:27:36;101292.75;;;3.31;48.23
68822;BME280;55834;50.870;4.606;2023-04-26T01:30:02;101296.16;;;3.22;48.63
68822;BME280;55834;50.870;4.606;2023-04-26T01:32:27;101295.31;;;3.25;49.01
68822;BME280;55834;50.870;4.606;2023-04-26T01:34:53;101286.69;;;3.32;49.03
68822;BME280;55834;50.870;4.606;2023-04-26T01:37:18;101295.41;;;3.35;49.13
68822;BME280;55834;50.870;4.606;2023-04-26T01:39:43;101295.13;;;3.12;46.92
68822;BME280;55834;50.870;4.606;2023-04-26T01:42:09;101288.09;;;3.05;49.71
68822;BME280;55834;50.870;4.606;2023-04-26T01:44:34;101282.13;;;3.15;49.71
68822;BME280;55834;50.870;4.606;2023-04-26T01:47:00;101278.72;;;3.20;49.14
68822;BME280;55834;50.870;4.606;2023-04-26T01:49:25;101271.75;;;3.22;48.16
68822;BME280;55834;50.870;4.606;2023-04-26T01:51:50;101267.97;;;2.93;47.41
68822;BME280;55834;50.870;4.606;2023-04-26T01:54:16;101270.25;;;2.67;49.24
68822;BME280;55834;50.870;4.606;2023-04-26T01:56:41;101273.50;;;2.51;52.61
68822;BME280;55834;50.870;4.606;2023-04-26T01:59:07;101258.03;;;2.63;52.35
68822;BME280;55834;50.870;4.606;2023-04-26T02:01:32;101269.56;;;2.82;51.32
68822;BME280;55834;50.870;4.606;2023-04-26T02:03:57;101265.19;;;2.81;49.30
68822;BME280;55834;50.870;4.606;2023-04-26T02:06:23;101262.53;;;2.77;49.02
68822;BME280;55834;50.870;4.606;2023-04-26T02:08:48;101270.31;;;2.70;50.09
68822;BME280;55834;50.870;4.606;2023-04-26T02:11:13;101273.75;;;2.69;50.32
68822;BME280;55834;50.870;4.606;2023-04-26T02:13:39;101262.50;;;2.75;49.44
68822;BME280;55834;50.870;4.606;2023-04-26T02:16:04;101259.13;;;2.84;50.34
68822;BME280;55834;50.870;4.606;2023-04-26T02:18:30;101254.88;;;2.87;49.73
68822;BME280;55834;50.870;4.606;2023-04-26T02:20:55;101262.72;;;2.90;49.33
68822;BME280;55834;50.870;4.606;2023-04-26T02:23:21;101254.88;;;2.89;49.32
68822;BME280;55834;50.870;4.606;2023-04-26T02:25:48;101254.91;;;2.90;48.53
68822;BME280;55834;50.870;4.606;2023-04-26T02:28:14;101251.25;;;2.76;46.96
68822;BME280;55834;50.870;4.606;2023-04-26T02:30:40;101256.50;;;2.14;50.98
68822;BME280;55834;50.870;4.606;2023-04-26T02:33:06;101249.66;;;2.22;52.72
68822;BME280;55834;50.870;4.606;2023-04-26T02:35:33;101239.47;;;2.40;51.84
68822;BME280;55834;50.870;4.606;2023-04-26T02:37:59;101245.78;;;2.56;51.56
68822;BME280;55834;50.870;4.606;2023-04-26T02:40:24;101249.34;;;2.63;49.84
68822;BME280;55834;50.870;4.606;2023-04-26T02:42:50;101248.44;;;2.59;49.78
68822;BME280;55834;50.870;4.606;2023-04-26T02:45:15;101249.16;;;2.47;49.53
68822;BME280;55834;50.870;4.606;2023-04-26T02:47:41;101247.25;;;2.37;50.16
68822;BME280;55834;50.870;4.606;2023-04-26T02:50:07;101249.16;;;2.47;50.42
68822;BME280;55834;50.870;4.606;2023-04-26T02:52:36;101250.09;;;2.54;50.25
68822;BME280;55834;50.870;4.606;2023-04-26T02:55:02;101248.44;;;2.61;50.17
68822;BME280;55834;50.870;4.606;2023-04-26T02:57:29;101243.25;;;2.62;49.62
68822;BME280;55834;50.870;4.606;2023-04-26T02:59:54;101242.41;;;2.66;49.57
68822;BME280;55834;50.870;4.606;2023-04-26T03:02:20;101241.59;;;2.69;49.93
68822;BME280;55834;50.870;4.606;2023-04-26T03:04:45;101249.34;;;2.63;48.50
68822;BME280;55834;50.870;4.606;2023-04-26T03:07:12;101250.91;;;2.52;49.32
68822;BME280;55834;50.870;4.606;2023-04-26T03:09:37;101245.78;;;2.56;50.75
68822;BME280;55834;50.870;4.606;2023-04-26T03:12:06;101240.69;;;2.65;49.96
68822;BME280;55834;50.870;4.606;2023-04-26T03:14:32;101239.84;;;2.69;49.71
68822;BME280;55834;50.870;4.606;2023-04-26T03:16:58;101236.34;;;2.64;49.32
68822;BME280;55834;50.870;4.606;2023-04-26T03:19:24;101237.09;;;2.57;48.71
68822;BME280;55834;50.870;4.606;2023-04-26T03:21:50;101237.97;;;2.58;49.00
68822;BME280;55834;50.870;4.606;2023-04-26T03:24:15;101247.31;;;2.40;49.37
68822;BME280;55834;50.870;4.606;2023-04-26T03:26:40;101247.25;;;2.36;49.94
68822;BME280;55834;50.870;4.606;2023-04-26T03:29:06;101235.16;;;2.42;50.42
68822;BME280;55834;50.870;4.606;2023-04-26T03:31:32;101242.19;;;2.48;50.34
68822;BME280;55834;50.870;4.606;2023-04-26T03:33:57;101237.88;;;2.50;50.03
68822;BME280;55834;50.870;4.606;2023-04-26T03:36:23;101235.31;;;2.53;50.44
68822;BME280;55834;50.870;4.606;2023-04-26T03:38:49;101239.69;;;2.56;50.43
68822;BME280;55834;50.870;4.606;2023-04-26T03:41:14;101236.34;;;2.64;50.58
68822;BME280;55834;50.870;4.606;2023-04-26T03:43:39;101232.81;;;2.62;49.69
68822;BME280;55834;50.870;4.606;2023-04-26T03:46:05;101238.88;;;2.58;49.18
68822;BME280;55834;50.870;4.606;2023-04-26T03:48:30;101233.53;;;2.52;49.22
68822;BME280;55834;50.870;4.606;2023-04-26T03:50:55;101233.59;;;2.54;49.47
68822;BME280;55834;50.870;4.606;2023-04-26T03:53:21;101224.97;;;2.59;50.52
68822;BME280;55834;50.870;4.606;2023-04-26T03:55:46;101227.56;;;2.61;49.98
68822;BME280;55834;50.870;4.606;2023-04-26T03:58:13;101216.28;;;2.60;50.25
68822;BME280;55834;50.870;4.606;2023-04-26T04:00:39;101229.13;;;2.45;48.27
68822;BME280;55834;50.870;4.606;2023-04-26T04:03:06;101236.13;;;2.47;49.60
68822;BME280;55834;50.870;4.606;2023-04-26T04:05:32;101235.28;;;2.50;49.89
68822;BME280;55834;50.870;4.606;2023-04-26T04:07:57;101232.59;;;2.45;49.36
68822;BME280;55834;50.870;4.606;2023-04-26T04:10:23;101244.56;;;2.31;49.88
68822;BME280;55834;50.870;4.606;2023-04-26T04:12:51;101236.56;;;2.17;50.46
68822;BME280;55834;50.870;4.606;2023-04-26T04:15:18;101235.81;;;2.26;51.09
68822;BME280;55834;50.870;4.606;2023-04-26T04:17:43;101229.09;;;2.42;51.17
68822;BME280;55834;50.870;4.606;2023-04-26T04:20:09;101230.78;;;2.38;49.95
68822;BME280;55834;50.870;4.606;2023-04-26T04:22:36;101239.13;;;2.13;49.13
68822;BME280;55834;50.870;4.606;2023-04-26T04:25:07;101243.53;;;2.20;50.81
68822;BME280;55834;50.870;4.606;2023-04-26T04:27:35;101234.13;;;2.28;51.51
68822;BME280;55834;50.870;4.606;2023-04-26T04:30:01;101234.19;;;2.33;50.48
68822;BME280;55834;50.870;4.606;2023-04-26T04:32:28;101232.44;;;2.33;50.09
68822;BME280;55834;50.870;4.606;2023-04-26T04:34:53;101239.38;;;2.31;49.87
68822;BME280;55834;50.870;4.606;2023-04-26T04:37:19;101235.00;;;2.30;50.99
68822;BME280;55834;50.870;4.606;2023-04-26T04:39:45;101232.41;;;2.30;51.06
68822;BME280;55834;50.870;4.606;2023-04-26T04:42:10;101234.97;;;2.28;51.50
68822;BME280;55834;50.870;4.606;2023-04-26T04:44:37;101236.66;;;2.23;51.42
68822;BME280;55834;50.870;4.606;2023-04-26T04:47:04;101233.22;;;2.26;52.12
68822;BME280;55834;50.870;4.606;2023-04-26T04:49:29;101241.19;;;2.35;52.57
68822;BME280;55834;50.870;4.606;2023-04-26T04:51:55;101248.19;;;2.42;52.84
68822;BME280;55834;50.870;4.606;2023-04-26T04:54:21;101250.84;;;2.44;52.06
68822;BME280;55834;50.870;4.606;2023-04-26T04:56:47;101242.16;;;2.46;52.24
68822;BME280;55834;50.870;4.606;2023-04-26T04:59:13;101250.97;;;2.55;52.52
68822;BME280;55834;50.870;4.606;2023-04-26T05:01:38;101247.56;;;2.60;52.58
68822;BME280;55834;50.870;4.606;2023-04-26T05:04:04;101247.66;;;2.69;52.94
68822;BME280;55834;50.870;4.606;2023-04-26T05:06:30;101244.31;;;2.80;52.27
68822;BME280;55834;50.870;4.606;2023-04-26T05:08:56;101248.75;;;2.85;52.95
68822;BME280;55834;50.870;4.606;2023-04-26T05:11:22;101240.94;;;2.90;52.43
68822;BME280;55834;50.870;4.606;2023-04-26T05:13:47;101248.88;;;2.96;53.00
68822;BME280;55834;50.870;4.606;2023-04-26T05:16:13;101256.72;;;2.99;52.91
68822;BME280;55834;50.870;4.606;2023-04-26T05:18:39;101256.00;;;3.12;53.02
68822;BME280;55834;50.870;4.606;2023-04-26T05:21:04;101258.81;;;3.29;52.97
68822;BME280;55834;50.870;4.606;2023-04-26T05:23:30;101259.88;;;3.50;53.39
68822;BME280;55834;50.870;4.606;2023-04-26T05:26:00;101253.97;;;3.74;52.34
68822;BME280;55834;50.870;4.606;2023-04-26T05:28:25;101253.28;;;3.92;52.09
68822;BME280;55834;50.870;4.606;2023-04-26T05:30:51;101256.81;;;4.01;51.30
68822;BME280;55834;50.870;4.606;2023-04-26T05:33:16;101251.63;;;4.11;51.34
68822;BME280;55834;50.870;4.606;2023-04-26T05:35:42;101254.38;;;4.26;51.74
68822;BME280;55834;50.870;4.606;2023-04-26T05:38:07;101257.00;;;4.30;50.13
68822;BME280;55834;50.870;4.606;2023-04-26T05:40:33;101261.97;;;3.92;49.56
68822;BME280;55834;50.870;4.606;2023-04-26T05:42:58;101257.69;;;4.02;51.37
68822;BME280;55834;50.870;4.606;2023-04-26T05:45:23;101258.63;;;4.12;51.14
68822;BME280;55834;50.870;4.606;2023-04-26T05:47:49;101268.25;;;4.19;50.96
68822;BME280;55834;50.870;4.606;2023-04-26T05:50:16;101284.00;;;4.26;50.57
68822;BME280;55834;50.870;4.606;2023-04-26T05:52:41;101275.38;;;4.41;50.76
68822;BME280;55834;50.870;4.606;2023-04-26T05:55:08;101271.13;;;4.68;50.55
68822;BME280;55834;50.870;4.606;2023-04-26T05:57:34;101272.09;;;4.87;50.14
68822;BME280;55834;50.870;4.606;2023-04-26T05:59:59;101274.75;;;5.05;50.31
68822;BME280;55834;50.870;4.606;2023-04-26T06:02:31;101280.06;;;5.24;49.62
68822;BME280;55834;50.870;4.606;2023-04-26T06:04:56;101284.47;;;5.37;49.91
68822;BME280;55834;50.870;4.606;2023-04-26T06:07:22;101285.34;;;5.37;49.65
68822;BME280;55834;50.870;4.606;2023-04-26T06:09:47;101293.19;;;5.34;49.59
68822;BME280;55834;50.870;4.606;2023-04-26T06:12:13;101291.47;;;5.36;49.68
68822;BME280;55834;50.870;4.606;2023-04-26T06:14:38;101288.84;;;5.47;49.93
68822;BME280;55834;50.870;4.606;2023-04-26T06:17:04;101298.44;;;5.50;49.16
68822;BME280;55834;50.870;4.606;2023-04-26T06:19:29;101303.69;;;5.56;49.31
68822;BME280;55834;50.870;4.606;2023-04-26T06:21:55;101299.34;;;5.58;49.24
68822;BME280;55834;50.870;4.606;2023-04-26T06:24:22;101300.22;;;5.54;49.35
68822;BME280;55834;50.870;4.606;2023-04-26T06:26:51;101304.59;;;5.64;49.68
68822;BME280;55834;50.870;4.606;2023-04-26T06:29:17;101302.00;;;5.79;49.35
68822;BME280;55834;50.870;4.606;2023-04-26T06:31:42;101301.13;;;5.88;49.56
68822;BME280;55834;50.870;4.606;2023-04-26T06:34:08;101304.63;;;5.92;49.03
68822;BME280;55834;50.870;4.606;2023-04-26T06:36:33;101308.97;;;5.86;49.04
68822;BME280;55834;50.870;4.606;2023-04-26T06:38:59;101309.84;;;5.87;49.18
68822;BME280;55834;50.870;4.606;2023-04-26T06:41:25;101314.19;;;5.85;49.68
68822;BME280;55834;50.870;4.606;2023-04-26T06:43:51;101306.34;;;5.86;49.60
68822;BME280;55834;50.870;4.606;2023-04-26T06:46:16;101301.97;;;5.90;49.79
68822;BME280;55834;50.870;4.606;2023-04-26T06:48:41;101302.88;;;5.89;49.74
68822;BME280;55834;50.870;4.606;2023-04-26T06:51:07;101293.25;;;5.91;50.24
68822;BME280;55834;50.870;4.606;2023-04-26T06:53:37;101301.97;;;5.90;50.41
68822;BME280;55834;50.870;4.606;2023-04-26T06:56:05;101292.38;;;5.83;50.39
68822;BME280;55834;50.870;4.606;2023-04-26T06:58:31;101298.50;;;5.94;50.47
68822;BME280;55834;50.870;4.606;2023-04-26T07:00:56;101300.25;;;6.06;50.31
68822;BME280;55834;50.870;4.606;2023-04-26T07:03:21;101288.88;;;5.84;50.22
68822;BME280;55834;50.870;4.606;2023-04-26T07:05:48;101298.50;;;5.71;50.46
68822;BME280;55834;50.870;4.606;2023-04-26T07:08:13;101302.84;;;5.69;50.79
68822;BME280;55834;50.870;4.606;2023-04-26T07:10:40;101296.75;;;5.88;51.56
68822;BME280;55834;50.870;4.606;2023-04-26T07:13:05;101298.47;;;6.08;50.99
68822;BME280;55834;50.870;4.606;2023-04-26T07:15:31;101301.13;;;6.00;50.11
68822;BME280;55834;50.870;4.606;2023-04-26T07:17:57;101294.09;;;6.34;51.90
68822;BME280;55834;50.870;4.606;2023-04-26T07:20:22;101288.78;;;6.61;50.73
68822;BME280;55834;50.870;4.606;2023-04-26T07:22:49;101284.44;;;6.49;49.64
68822;BME280;55834;50.870;4.606;2023-04-26T07:25:15;101286.22;;;6.13;49.57
68822;BME280;55834;50.870;4.606;2023-04-26T07:27:41;101288.81;;;6.28;51.23
68822;BME280;55834;50.870;4.606;2023-04-26T07:30:07;101288.78;;;6.56;51.32
68822;BME280;55834;50.870;4.606;2023-04-26T07:32:32;101295.75;;;6.62;49.66
68822;BME280;55834;50.870;4.606;2023-04-26T07:34:58;101287.00;;;6.73;48.80
68822;BME280;55834;50.870;4.606;2023-04-26T07:37:23;101295.66;;;6.94;50.13
68822;BME280;55834;50.870;4.606;2023-04-26T07:39:49;101296.44;;;7.14;49.78
68822;BME280;55834;50.870;4.606;2023-04-26T07:42:14;101294.72;;;7.10;48.59
68822;BME280;55834;50.870;4.606;2023-04-26T07:44:39;101298.09;;;7.32;49.15
68822;BME280;55834;50.870;4.606;2023-04-26T07:47:11;101297.97;;;7.52;48.45
68822;BME280;55834;50.870;4.606;2023-04-26T07:49:36;101297.78;;;7.78;48.24
68822;BME280;55834;50.870;4.606;2023-04-26T07:52:01;101303.72;;;7.99;47.91
68822;BME280;55834;50.870;4.606;2023-04-26T07:54:27;101296.84;;;7.85;46.28
68822;BME280;55834;50.870;4.606;2023-04-26T07:56:52;101298.63;;;7.80;47.17
68822;BME280;55834;50.870;4.606;2023-04-26T07:59:18;101301.94;;;8.04;47.05
68822;BME280;55834;50.870;4.606;2023-04-26T08:01:45;101292.25;;;8.12;46.44
68822;BME280;55834;50.870;4.606;2023-04-26T08:04:10;101291.50;;;7.93;45.15
68822;BME280;55834;50.870;4.606;2023-04-26T08:06:36;101294.00;;;8.13;46.67
68822;BME280;55834;50.870;4.606;2023-04-26T08:09:02;101285.78;;;8.45;45.96
68822;BME280;55834;50.870;4.606;2023-04-26T08:11:29;101293.91;;;8.25;43.98
68822;BME280;55834;50.870;4.606;2023-04-26T08:13:54;101301.66;;;8.38;44.54
68822;BME280;55834;50.870;4.606;2023-04-26T08:16:20;101290.06;;;8.55;42.83
68822;BME280;55834;50.870;4.606;2023-04-26T08:18:45;101292.84;;;8.43;44.19
68822;BME280;55834;50.870;4.606;2023-04-26T08:21:12;101282.91;;;8.67;43.57
68822;BME280;55834;50.870;4.606;2023-04-26T08:23:38;101279.00;;;8.98;43.34
68822;BME280;55834;50.870;4.606;2023-04-26T08:26:03;101286.63;;;9.20;42.49
68822;BME280;55834;50.870;4.606;2023-04-26T08:28:29;101284.66;;;9.37;42.11
68822;BME280;55834;50.870;4.606;2023-04-26T08:30:54;101271.72;;;9.19;39.82
68822;BME280;55834;50.870;4.606;2023-04-26T08:33:19;101276.72;;;8.72;41.29
68822;BME280;55834;50.870;4.606;2023-04-26T08:35:45;101280.63;;;9.09;41.57
68822;BME280;55834;50.870;4.606;2023-04-26T08:38:10;101282.22;;;9.20;40.00
68822;BME280;55834;50.870;4.606;2023-04-26T08:40:36;101275.78;;;9.44;41.25
68822;BME280;55834;50.870;4.606;2023-04-26T08:43:01;101268.16;;;9.80;40.16
68822;BME280;55834;50.870;4.606;2023-04-26T08:45:27;101270.84;;;9.77;38.25
68822;BME280;55834;50.870;4.606;2023-04-26T08:47:56;101267.81;;;10.02;40.74
68822;BME280;55834;50.870;4.606;2023-04-26T08:50:24;101268.94;;;10.35;39.29
68822;BME280;55834;50.870;4.606;2023-04-26T08:52:51;101264.22;;;10.04;37.10
68822;BME280;55834;50.870;4.606;2023-04-26T08:55:18;101281.16;;;7.76;39.63
68822;BME280;55834;50.870;4.606;2023-04-26T08:57:48;101268.88;;;7.75;42.11
68822;BME280;55834;50.870;4.606;2023-04-26T09:00:14;101256.81;;;9.15;40.50
68822;BME280;55834;50.870;4.606;2023-04-26T09:02:50;101250.25;;;9.99;38.83
68822;BME280;55834;50.870;4.606;2023-04-26T09:05:19;101261.81;;;10.38;37.25
68822;BME280;55834;50.870;4.606;2023-04-26T09:07:49;101254.59;;;9.49;33.65
68822;BME280;55834;50.870;4.606;2023-04-26T09:10:19;101261.59;;;8.11;35.62
68822;BME280;55834;50.870;4.606;2023-04-26T09:12:45;101252.56;;;8.35;38.58
68822;BME280;55834;50.870;4.606;2023-04-26T09:15:13;101255.19;;;9.09;35.91
68822;BME280;55834;50.870;4.606;2023-04-26T09:17:39;101255.41;;;8.15;37.98
68822;BME280;55834;50.870;4.606;2023-04-26T09:20:28;101262.34;;;8.96;38.87
68822;BME280;55834;50.870;4.606;2023-04-26T09:23:06;101254.59;;;9.49;38.85
68822;BME280;55834;50.870;4.606;2023-04-26T09:25:32;101252.44;;;9.76;38.12
68822;BME280;55834;50.870;4.606;2023-04-26T09:27:58;101259.50;;;10.22;37.56
68822;BME280;55834;50.870;4.606;2023-04-26T09:30:25;101259.81;;;10.53;36.29
68822;BME280;55834;50.870;4.606;2023-04-26T09:32:58;101251.41;;;9.25;36.01
68822;BME280;55834;50.870;4.606;2023-04-26T09:38:12;101270.38;;;6.76;39.25
68822;BME280;55834;50.870;4.606;2023-04-26T09:40:48;101264.84;;;8.36;35.85
68822;BME280;55834;50.870;4.606;2023-04-26T09:43:18;101264.66;;;9.21;36.20
68822;BME280;55834;50.870;4.606;2023-04-26T09:45:57;101259.22;;;9.90;36.61
68822;BME280;55834;50.870;4.606;2023-04-26T09:48:24;101255.66;;;9.93;33.93
68822;BME280;55834;50.870;4.606;2023-04-26T09:51:16;101268.53;;;9.57;35.13
68822;BME280;55834;50.870;4.606;2023-04-26T09:53:46;101261.63;;;10.01;34.93
68822;BME280;55834;50.870;4.606;2023-04-26T09:56:16;101261.75;;;10.43;34.36
68822;BME280;55834;50.870;4.606;2023-04-26T10:01:13;101265.13;;;9.49;32.05
68822;BME280;55834;50.870;4.606;2023-04-26T10:03:39;101256.34;;;9.50;33.19
68822;BME280;55834;50.870;4.606;2023-04-26T10:06:06;101269.78;;;7.73;35.78
68822;BME280;55834;50.870;4.606;2023-04-26T10:08:31;101248.91;;;9.18;35.83
68822;BME280;55834;50.870;4.606;2023-04-26T10:10:57;101251.69;;;9.66;35.69
68822;BME280;55834;50.870;4.606;2023-04-26T10:13:24;101251.84;;;9.58;34.49
68822;BME280;55834;50.870;4.606;2023-04-26T10:15:51;101254.38;;;10.14;34.31
68822;BME280;55834;50.870;4.606;2023-04-26T10:18:16;101257.03;;;8.28;34.75
68822;BME280;55834;50.870;4.606;2023-04-26T10:20:44;101266.88;;;8.03;35.96
68822;BME280;55834;50.870;4.606;2023-04-26T10:23:41;101251.59;;;9.12;34.54
68822;BME280;55834;50.870;4.606;2023-04-26T10:29:12;101251.84;;;7.10;38.51
68822;BME280;55834;50.870;4.606;2023-04-26T10:34:34;101234.84;;;8.52;35.07
68822;BME280;55834;50.870;4.606;2023-04-26T10:37:12;101222.94;;;8.89;34.12
68822;BME280;55834;50.870;4.606;2023-04-26T10:39:39;101228.66;;;9.21;35.36
68822;BME280;55834;50.870;4.606;2023-04-26T10:42:27;101219.00;;;10.24;34.83
68822;BME280;55834;50.870;4.606;2023-04-26T10:45:27;101210.88;;;10.35;33.53
68822;BME280;55834;50.870;4.606;2023-04-26T10:58:48;101198.91;;;10.62;33.37
68822;BME280;55834;50.870;4.606;2023-04-26T11:06:22;101185.28;;;8.84;35.13
68822;BME280;55834;50.870;4.606;2023-04-26T11:08:48;101195.38;;;7.67;35.54
68822;BME280;55834;50.870;4.606;2023-04-26T11:11:15;101199.66;;;6.41;38.87
68822;BME280;55834;50.870;4.606;2023-04-26T11:13:45;101193.78;;;8.36;36.69
68822;BME280;55834;50.870;4.606;2023-04-26T11:16:15;101189.50;;;8.27;36.88
68822;BME280;55834;50.870;4.606;2023-04-26T11:18:53;101196.78;;;8.05;35.54
68822;BME280;55834;50.870;4.606;2023-04-26T11:21:20;101186.91;;;8.24;36.30
68822;BME280;55834;50.870;4.606;2023-04-26T11:23:52;101188.44;;;8.44;35.83
68822;BME280;55834;50.870;4.606;2023-04-26T11:26:17;101186.75;;;8.36;35.50
68822;BME280;55834;50.870;4.606;2023-04-26T11:28:42;101189.03;;;8.67;34.79
68822;BME280;55834;50.870;4.606;2023-04-26T11:31:09;101177.94;;;9.63;35.25
68822;BME280;55834;50.870;4.606;2023-04-26T11:33:35;101186.78;;;9.01;34.60
68822;BME280;55834;50.870;4.606;2023-04-26T11:36:01;101181.47;;;7.55;37.26
68822;BME280;55834;50.870;4.606;2023-04-26T11:38:27;101177.94;;;9.07;35.16
68822;BME280;55834;50.870;4.606;2023-04-26T11:40:58;101176.53;;;9.40;33.15
68822;BME280;55834;50.870;4.606;2023-04-26T11:43:36;101172.88;;;9.99;33.14
68822;BME280;55834;50.870;4.606;2023-04-26T11:46:03;101176.66;;;8.00;34.70
68822;BME280;55834;50.870;4.606;2023-04-26T11:48:29;101176.94;;;8.52;35.54
68822;BME280;55834;50.870;4.606;2023-04-26T11:50:59;101173.88;;;8.15;33.75
68822;BME280;55834;50.870;4.606;2023-04-26T11:53:34;101181.09;;;6.85;36.70
68822;BME280;55834;50.870;4.606;2023-04-26T11:56:00;101167.09;;;7.89;35.99
68822;BME280;55834;50.870;4.606;2023-04-26T11:58:26;101170.63;;;8.66;33.44
68822;BME280;55834;50.870;4.606;2023-04-26T12:00:58;101163.38;;;8.83;33.50
68822;BME280;55834;50.870;4.606;2023-04-26T12:03:31;101163.84;;;9.64;32.90
68822;BME280;55834;50.870;4.606;2023-04-26T12:05:57;101167.31;;;10.14;33.17
68822;BME280;55834;50.870;4.606;2023-04-26T12:08:24;101169.78;;;9.75;31.49
68822;BME280;55834;50.870;4.606;2023-04-26T12:10:50;101162.97;;;10.11;31.07
68822;BME280;55834;50.870;4.606;2023-04-26T12:13:19;101167.22;;;10.62;32.22
68822;BME280;55834;50.870;4.606;2023-04-26T12:15:45;101173.28;;;10.67;31.16
68822;BME280;55834;50.870;4.606;2023-04-26T12:18:12;101173.69;;;10.89;32.79
68822;BME280;55834;50.870;4.606;2023-04-26T12:20:46;101169.91;;;10.99;32.33
68822;BME280;55834;50.870;4.606;2023-04-26T12:26:03;101181.31;;;11.37;32.43
68822;BME280;55834;50.870;4.606;2023-04-26T12:28:29;101167.53;;;11.62;31.83
68822;BME280;55834;50.870;4.606;2023-04-26T12:30:55;101162.81;;;12.06;32.22
68822;BME280;55834;50.870;4.606;2023-04-26T12:33:20;101162.56;;;12.46;31.65
68822;BME280;55834;50.870;4.606;2023-04-26T12:35:48;101165.13;;;12.79;30.72
68822;BME280;55834;50.870;4.606;2023-04-26T12:38:33;101158.72;;;12.86;28.92
68822;BME280;55834;50.870;4.606;2023-04-26T12:40:59;101157.81;;;13.15;29.80
68822;BME280;55834;50.870;4.606;2023-04-26T12:43:25;101160.66;;;13.36;28.32
68822;BME280;55834;50.870;4.606;2023-04-26T12:45:56;101162.25;;;13.41;29.37
68822;BME280;55834;50.870;4.606;2023-04-26T12:48:48;101160.34;;;13.71;29.03
68822;BME280;55834;50.870;4.606;2023-04-26T12:51:13;101146.94;;;14.01;29.12
68822;BME280;55834;50.870;4.606;2023-04-26T12:53:39;101161.78;;;14.30;29.33
68822;BME280;55834;50.870;4.606;2023-04-26T12:56:04;101159.13;;;13.82;28.66
68822;BME280;55834;50.870;4.606;2023-04-26T12:58:31;101160.56;;;14.15;27.49
68822;BME280;55834;50.870;4.606;2023-04-26T13:00:56;101164.25;;;13.06;25.72
68822;BME280;55834;50.870;4.606;2023-04-26T13:03:22;101163.41;;;13.61;28.66
68822;BME280;55834;50.870;4.606;2023-04-26T13:05:47;101157.56;;;14.01;28.58
68822;BME280;55834;50.870;4.606;2023-04-26T13:08:12;101162.69;;;13.56;26.69
68822;BME280;55834;50.870;4.606;2023-04-26T13:10:38;101161.00;;;14.03;28.21
68822;BME280;55834;50.870;4.606;2023-04-26T13:13:03;101163.88;;;12.31;27.26
68822;BME280;55834;50.870;4.606;2023-04-26T13:15:29;101157.44;;;12.71;27.52
68822;BME280;55834;50.870;4.606;2023-04-26T13:17:54;101153.38;;;12.87;27.11
68822;BME280;55834;50.870;4.606;2023-04-26T13:20:20;101150.06;;;12.50;28.94
68822;BME280;55834;50.870;4.606;2023-04-26T13:22:46;101156.44;;;13.02;27.55
68822;BME280;55834;50.870;4.606;2023-04-26T13:25:11;101153.69;;;13.05;26.77
68822;BME280;55834;50.870;4.606;2023-04-26T13:27:40;101159.53;;;11.63;28.96